Time;durP1;ratioP1;P1;durP2;ratioP2;P2;SDS_P1;SDS_P2;PMS_P1;PMS_P2;Temp;Humidity;BMP_temperature;BMP_pressure;BME280_temperature;BME280_humidity;BME280_pressure;Samples;Min_cycle;Max_cycle;Signal;HPM_P1;HPM_P2
2020/12/15 00:02:24;;;;;;;10.75;4.20;;;16.30;60.40;;;;;;5033202;28;20029;-62
2020/12/15 00:04:50;;;;;;;10.98;4.10;;;16.30;60.50;;;;;;5040864;28;20036;-62
2020/12/15 00:07:16;;;;;;;10.55;4.30;;;16.30;60.20;;;;;;5064683;28;20141;-62
2020/12/15 00:09:41;;;;;;;9.45;3.90;;;16.20;60.50;;;;;;5045392;28;20030;-63
2020/12/15 00:12:07;;;;;;;8.73;3.83;;;16.20;60.40;;;;;;5027542;28;20017;-63
2020/12/15 00:14:32;;;;;;;8.20;3.80;;;16.20;60.20;;;;;;5045866;28;20083;-62
2020/12/15 00:16:58;;;;;;;8.13;3.58;;;16.20;60.20;;;;;;5033875;28;20022;-63
2020/12/15 00:19:24;;;;;;;10.48;3.80;;;16.20;60.20;;;;;;5034403;28;20048;-61
2020/12/15 00:21:51;;;;;;;9.07;3.65;;;16.20;60.80;;;;;;5031325;28;20455;-62
2020/12/15 00:24:17;;;;;;;10.65;3.80;;;16.20;60.10;;;;;;5013370;28;20386;-62
2020/12/15 00:26:42;;;;;;;8.50;3.22;;;16.20;60.10;;;;;;5031012;28;20029;-62
2020/12/15 00:29:11;;;;;;;10.98;3.95;;;16.20;59.70;;;;;;5029338;28;20521;-62
2020/12/15 00:31:37;;;;;;;10.68;3.90;;;16.20;59.70;;;;;;5019277;28;20024;-62
2020/12/15 00:34:04;;;;;;;7.82;3.55;;;16.20;59.40;;;;;;5025434;28;20071;-62
2020/12/15 00:36:29;;;;;;;7.80;3.53;;;16.20;59.50;;;;;;5043670;28;20030;-63
2020/12/15 00:38:55;;;;;;;9.15;4.05;;;16.20;59.20;;;;;;5050685;28;20071;-62
2020/12/15 00:41:21;;;;;;;9.43;3.70;;;16.20;59.30;;;;;;5053554;28;20029;-62
2020/12/15 00:43:47;;;;;;;8.57;3.78;;;16.20;59.30;;;;;;5069779;28;20055;-63
2020/12/15 00:46:14;;;;;;;11.18;4.22;;;16.20;59.50;;;;;;5070339;28;20137;-62
2020/12/15 00:48:39;;;;;;;7.10;3.33;;;16.20;59.30;;;;;;5056240;28;20025;-63
2020/12/15 00:51:05;;;;;;;7.05;3.72;;;16.20;59.20;;;;;;5049400;28;20082;-62
2020/12/15 00:53:31;;;;;;;9.30;3.45;;;16.20;59.60;;;;;;5032091;28;20028;-63
2020/12/15 00:55:56;;;;;;;9.15;3.35;;;16.20;59.40;;;;;;5032332;28;20389;-62
2020/12/15 00:58:22;;;;;;;7.07;3.33;;;16.20;59.20;;;;;;5050253;28;20025;-62
2020/12/15 01:00:47;;;;;;;8.13;3.35;;;16.10;59.40;;;;;;5038795;28;20029;-63
2020/12/15 01:03:13;;;;;;;6.45;3.33;;;16.20;59.70;;;;;;5042616;28;20083;-62
2020/12/15 01:05:38;;;;;;;8.13;3.67;;;16.20;59.60;;;;;;5032634;28;20017;-63
2020/12/15 01:08:04;;;;;;;7.68;3.20;;;16.20;59.60;;;;;;5039071;28;20061;-63
2020/12/15 01:10:29;;;;;;;8.18;3.17;;;16.20;59.70;;;;;;5032166;28;20060;-63
2020/12/15 01:12:55;;;;;;;8.02;3.45;;;16.20;60.00;;;;;;5049615;28;20094;-62
2020/12/15 01:15:20;;;;;;;8.98;2.90;;;16.20;59.00;;;;;;5049682;28;20104;-62
2020/12/15 01:17:46;;;;;;;7.82;3.30;;;16.20;58.80;;;;;;5048929;28;20386;-64
2020/12/15 01:20:11;;;;;;;7.60;3.35;;;16.20;59.50;;;;;;5034242;28;20100;-62
2020/12/15 01:22:37;;;;;;;7.47;3.30;;;16.20;59.10;;;;;;5045213;28;20489;-63
2020/12/15 01:25:02;;;;;;;7.32;3.10;;;16.20;59.30;;;;;;5040925;28;20078;-63
2020/12/15 01:27:28;;;;;;;6.97;2.90;;;16.20;59.40;;;;;;5039449;28;20012;-62
2020/12/15 01:29:53;;;;;;;8.65;2.63;;;16.20;59.50;;;;;;5073816;28;20028;-63
2020/12/15 01:32:19;;;;;;;9.18;3.10;;;16.10;59.50;;;;;;5055900;28;20016;-65
2020/12/15 01:34:44;;;;;;;6.32;2.95;;;16.20;59.20;;;;;;5073661;28;20029;-66
2020/12/15 01:37:10;;;;;;;6.53;3.00;;;16.10;58.80;;;;;;5050188;28;20436;-62
2020/12/15 01:39:35;;;;;;;9.40;3.00;;;16.10;58.90;;;;;;5039501;28;20083;-65
2020/12/15 01:42:01;;;;;;;7.45;2.90;;;16.20;59.90;;;;;;5022267;28;20539;-61
2020/12/15 01:44:26;;;;;;;7.43;3.10;;;16.20;60.00;;;;;;5044953;28;20079;-63
2020/12/15 01:46:52;;;;;;;8.90;3.08;;;16.20;59.90;;;;;;5045004;28;20029;-63
2020/12/15 01:49:18;;;;;;;8.20;2.95;;;16.20;59.50;;;;;;5021406;28;20063;-65
2020/12/15 01:51:48;;;;;;;6.38;2.80;;;16.20;59.50;;;;;;5042004;28;20039;-62
2020/12/15 01:54:14;;;;;;;7.15;2.50;;;16.20;59.10;;;;;;5018334;28;20501;-62
2020/12/15 01:56:39;;;;;;;6.38;2.53;;;16.20;59.10;;;;;;5044238;28;20033;-64
2020/12/15 01:59:05;;;;;;;7.20;3.08;;;16.20;58.70;;;;;;5024966;28;20027;-63
2020/12/15 02:01:42;;;;;;;10.82;3.30;;;16.20;58.60;;;;;;5051263;28;20017;-63
2020/12/15 02:04:08;;;;;;;8.35;2.80;;;16.20;58.80;;;;;;5038049;28;20424;-64
2020/12/15 02:06:33;;;;;;;6.53;2.90;;;16.10;58.60;;;;;;5040834;28;20029;-68
2020/12/15 02:08:59;;;;;;;7.85;2.90;;;16.10;58.50;;;;;;5036642;28;20052;-65
2020/12/15 02:11:27;;;;;;;6.72;3.20;;;16.10;58.60;;;;;;5049966;28;20025;-66
2020/12/15 02:13:52;;;;;;;7.13;2.80;;;16.10;58.80;;;;;;5033459;28;20021;-65
2020/12/15 02:16:18;;;;;;;11.70;3.28;;;16.10;59.00;;;;;;5043286;28;20495;-68
2020/12/15 02:18:43;;;;;;;7.57;2.90;;;16.10;58.80;;;;;;5049071;28;20332;-66
2020/12/15 02:21:09;;;;;;;6.15;2.80;;;16.10;58.70;;;;;;5048678;28;20065;-63
2020/12/15 02:23:35;;;;;;;6.95;2.90;;;16.10;59.10;;;;;;5021964;28;20024;-62
2020/12/15 02:26:09;;;;;;;5.47;2.60;;;16.20;59.10;;;;;;5036671;28;20483;-64
2020/12/15 02:28:35;;;;;;;6.63;2.75;;;16.20;59.20;;;;;;5026048;28;20029;-65
2020/12/15 02:31:01;;;;;;;8.90;3.03;;;16.10;58.80;;;;;;5033013;28;20593;-63
2020/12/15 02:33:26;;;;;;;7.20;3.03;;;16.20;58.60;;;;;;5046935;28;20116;-64
2020/12/15 02:35:52;;;;;;;9.20;2.92;;;16.10;58.50;;;;;;5048910;28;20025;-64
2020/12/15 02:38:18;;;;;;;6.78;3.03;;;16.10;58.60;;;;;;5047620;28;20456;-63
2020/12/15 02:40:44;;;;;;;5.80;2.90;;;16.10;58.50;;;;;;5022693;28;20033;-64
2020/12/15 02:43:10;;;;;;;7.20;3.08;;;16.10;58.70;;;;;;5041926;28;20044;-64
2020/12/15 02:45:35;;;;;;;6.53;3.00;;;16.10;58.50;;;;;;5031417;28;20034;-64
2020/12/15 02:48:01;;;;;;;6.20;2.88;;;16.10;58.60;;;;;;5046018;28;20548;-63
2020/12/15 02:50:26;;;;;;;9.35;2.72;;;16.10;59.00;;;;;;5039192;28;20037;-64
2020/12/15 02:52:52;;;;;;;7.10;3.03;;;16.10;59.40;;;;;;5014299;28;20017;-63
2020/12/15 02:55:18;;;;;;;8.52;2.88;;;16.10;59.00;;;;;;5031543;28;20540;-63
2020/12/15 02:57:48;;;;;;;7.80;2.80;;;16.10;59.00;;;;;;5051925;28;20014;-63
2020/12/15 03:00:13;;;;;;;7.95;2.95;;;16.20;58.70;;;;;;5033524;28;20033;-64
2020/12/15 03:02:39;;;;;;;6.95;2.72;;;16.10;58.80;;;;;;5043737;28;20025;-64
2020/12/15 03:05:05;;;;;;;6.20;2.40;;;16.10;59.60;;;;;;5047255;28;20383;-64
2020/12/15 03:07:31;;;;;;;5.45;2.88;;;16.20;60.60;;;;;;5051374;28;20033;-64
2020/12/15 03:09:58;;;;;;;7.57;2.47;;;16.20;60.80;;;;;;5048138;28;20059;-65
2020/12/15 03:12:23;;;;;;;6.93;2.45;;;16.10;61.40;;;;;;5049023;28;20025;-64
2020/12/15 03:14:49;;;;;;;8.02;2.55;;;16.10;61.40;;;;;;5028157;28;20029;-64
2020/12/15 03:17:18;;;;;;;7.18;2.60;;;16.20;61.90;;;;;;5051390;28;20029;-63
2020/12/15 03:19:44;;;;;;;5.88;2.65;;;16.10;62.40;;;;;;5044174;28;20024;-64
2020/12/15 03:22:13;;;;;;;6.75;2.47;;;16.10;62.50;;;;;;5050034;28;20474;-65
2020/12/15 03:24:39;;;;;;;8.55;2.50;;;16.10;62.50;;;;;;5041853;28;20025;-64
2020/12/15 03:27:04;;;;;;;6.97;2.85;;;16.20;62.50;;;;;;5013927;28;20044;-64
2020/12/15 03:29:30;;;;;;;5.75;2.47;;;16.20;62.30;;;;;;5039786;28;20032;-64
2020/12/15 03:31:55;;;;;;;6.22;2.30;;;16.20;62.30;;;;;;5036724;28;20017;-64
2020/12/15 03:34:21;;;;;;;8.85;3.55;;;16.10;62.40;;;;;;5014778;28;20022;-63
2020/12/15 03:36:46;;;;;;;6.13;2.00;;;16.20;62.60;;;;;;5047263;28;20478;-64
2020/12/15 03:39:12;;;;;;;12.35;3.22;;;16.10;62.40;;;;;;5016067;28;20057;-64
2020/12/15 03:41:38;;;;;;;5.60;2.20;;;16.10;62.60;;;;;;5016760;28;20045;-64
2020/12/15 03:44:03;;;;;;;5.45;2.40;;;16.10;63.30;;;;;;5040503;28;20033;-64
2020/12/15 03:46:29;;;;;;;7.57;2.35;;;16.10;63.10;;;;;;5022732;28;20048;-63
2020/12/15 03:48:54;;;;;;;5.15;2.47;;;16.00;63.10;;;;;;5017577;28;20045;-63
2020/12/15 03:51:20;;;;;;;5.95;2.50;;;16.00;63.10;;;;;;5031404;28;20391;-63
2020/12/15 03:53:45;;;;;;;3.97;2.00;;;16.00;63.20;;;;;;5013328;28;20080;-64
2020/12/15 03:56:11;;;;;;;5.68;2.30;;;16.00;63.30;;;;;;5038233;28;20021;-63
2020/12/15 03:58:37;;;;;;;5.38;2.25;;;16.00;63.70;;;;;;5015907;28;20496;-64
2020/12/15 04:01:03;;;;;;;6.32;2.13;;;16.00;63.30;;;;;;5036018;28;20030;-63
2020/12/15 04:03:29;;;;;;;6.78;2.38;;;16.00;63.70;;;;;;5050656;28;20096;-63
2020/12/15 04:05:55;;;;;;;4.95;2.30;;;16.00;63.30;;;;;;5050056;28;20150;-63
2020/12/15 04:08:20;;;;;;;5.45;2.00;;;16.00;63.40;;;;;;5046042;28;20100;-63
2020/12/15 04:10:48;;;;;;;4.90;2.13;;;16.00;63.90;;;;;;5012917;28;20029;-63
2020/12/15 04:13:14;;;;;;;6.75;2.50;;;16.00;63.90;;;;;;5034820;28;20013;-63
2020/12/15 04:15:39;;;;;;;6.20;2.20;;;16.00;63.60;;;;;;5039180;28;20036;-62
2020/12/15 04:18:05;;;;;;;5.00;2.15;;;16.00;63.70;;;;;;5050762;28;20029;-63
2020/12/15 04:20:30;;;;;;;4.68;2.10;;;16.00;63.90;;;;;;5042452;28;20026;-62
2020/12/15 04:22:56;;;;;;;6.05;2.25;;;16.00;64.10;;;;;;5033309;28;20026;-62
2020/12/15 04:25:21;;;;;;;6.25;2.30;;;16.00;63.90;;;;;;5036584;28;20040;-62
2020/12/15 04:27:47;;;;;;;5.15;2.10;;;16.00;64.00;;;;;;5024204;28;20025;-63
2020/12/15 04:30:12;;;;;;;3.95;2.03;;;16.00;64.20;;;;;;5020077;28;20024;-64
2020/12/15 04:32:38;;;;;;;4.70;2.08;;;16.00;64.60;;;;;;5043754;28;20501;-62
2020/12/15 04:35:04;;;;;;;4.25;1.80;;;16.00;64.60;;;;;;5039192;28;20022;-62
2020/12/15 04:37:29;;;;;;;4.68;1.95;;;15.90;64.60;;;;;;5012403;28;20108;-63
2020/12/15 04:39:55;;;;;;;4.88;2.00;;;16.00;64.40;;;;;;5031604;28;20563;-62
2020/12/15 04:42:21;;;;;;;4.32;2.00;;;16.00;64.60;;;;;;5013397;28;20025;-64
2020/12/15 04:44:47;;;;;;;6.57;2.13;;;16.00;64.60;;;;;;5037132;28;20036;-63
2020/12/15 04:47:19;;;;;;;5.13;2.00;;;15.90;64.40;;;;;;5023007;28;20590;-62
2020/12/15 04:49:47;;;;;;;4.63;1.92;;;15.90;64.50;;;;;;5030556;28;20044;-63
2020/12/15 04:52:15;;;;;;;3.72;1.70;;;15.90;64.60;;;;;;5018562;28;20021;-62
2020/12/15 04:54:48;;;;;;;6.25;2.40;;;15.90;64.50;;;;;;5032752;28;20033;-62
2020/12/15 04:57:17;;;;;;;5.22;1.95;;;15.90;64.40;;;;;;5022884;28;20108;-62
2020/12/15 04:59:46;;;;;;;4.47;2.00;;;15.90;64.40;;;;;;5017057;28;20029;-63
2020/12/15 05:02:11;;;;;;;6.20;1.98;;;15.90;64.70;;;;;;5031839;28;20542;-63
2020/12/15 05:04:42;;;;;;;6.53;2.35;;;15.90;64.80;;;;;;5027687;28;20044;-63
2020/12/15 05:07:09;;;;;;;8.23;3.20;;;15.90;64.80;;;;;;5030552;28;20025;-63
2020/12/15 05:09:37;;;;;;;6.40;3.35;;;15.90;65.10;;;;;;5029545;28;20062;-63
2020/12/15 05:12:02;;;;;;;7.32;2.65;;;15.90;64.80;;;;;;5033140;28;20099;-63
2020/12/15 05:14:28;;;;;;;6.40;2.40;;;15.90;65.00;;;;;;5037859;28;20475;-63
2020/12/15 05:16:54;;;;;;;5.15;2.10;;;15.80;65.10;;;;;;5038201;28;20112;-62
2020/12/15 05:19:20;;;;;;;6.93;2.10;;;15.80;65.10;;;;;;5030359;28;20028;-63
2020/12/15 05:22:12;;;;;;;8.20;2.40;;;15.90;65.20;;;;;;5031625;28;20052;-63
2020/12/15 05:24:37;;;;;;;4.43;2.10;;;15.90;64.60;;;;;;5035984;28;20048;-63
2020/12/15 05:27:03;;;;;;;5.90;2.28;;;15.90;64.80;;;;;;5033248;28;20037;-62
2020/12/15 05:29:28;;;;;;;7.80;1.98;;;15.90;65.20;;;;;;5042335;28;20036;-64
2020/12/15 05:31:58;;;;;;;5.00;2.50;;;15.90;64.80;;;;;;5038737;28;20525;-62
2020/12/15 05:34:25;;;;;;;6.70;2.08;;;15.90;65.10;;;;;;5014239;28;20036;-63
2020/12/15 05:36:53;;;;;;;8.35;2.20;;;15.90;65.00;;;;;;5035587;28;20139;-63
2020/12/15 05:39:19;;;;;;;14.35;2.55;;;15.90;64.90;;;;;;5029267;28;20391;-62
2020/12/15 05:41:44;;;;;;;5.35;2.25;;;15.90;64.70;;;;;;5029193;28;20036;-64
2020/12/15 05:44:12;;;;;;;7.18;2.60;;;15.90;64.60;;;;;;5017928;28;20929;-63
2020/12/15 05:46:46;;;;;;;10.00;2.53;;;15.90;65.00;;;;;;5016214;28;20124;-64
2020/12/15 05:49:13;;;;;;;13.05;2.72;;;16.00;64.70;;;;;;5023687;28;20031;-62
2020/12/15 05:51:44;;;;;;;16.50;2.55;;;16.00;64.70;;;;;;5017340;28;20178;-63
2020/12/15 05:54:13;;;;;;;24.70;3.70;;;16.00;64.70;;;;;;5024615;28;20041;-64
2020/12/15 05:56:41;;;;;;;12.85;3.03;;;16.00;64.70;;;;;;5008826;28;20030;-62
2020/12/15 05:59:20;;;;;;;10.98;2.75;;;16.00;64.70;;;;;;5015446;28;20546;-63
2020/12/15 06:01:50;;;;;;;10.25;3.20;;;16.00;64.60;;;;;;5034209;28;20025;-63
2020/12/15 06:04:17;;;;;;;14.77;2.88;;;16.00;64.60;;;;;;5028345;28;20218;-62
2020/12/15 06:06:43;;;;;;;12.18;2.97;;;16.00;64.50;;;;;;5021780;28;20021;-63
2020/12/15 06:09:11;;;;;;;11.95;3.17;;;16.00;64.00;;;;;;5015366;28;20112;-60
2020/12/15 06:11:41;;;;;;;11.77;2.95;;;16.00;64.30;;;;;;5010663;28;20175;-66
2020/12/15 06:14:11;;;;;;;20.58;3.30;;;16.00;64.50;;;;;;5024998;28;20055;-62
2020/12/15 06:16:39;;;;;;;15.20;3.15;;;16.00;64.70;;;;;;5011193;28;20029;-63
2020/12/15 06:19:09;;;;;;;26.35;3.55;;;16.00;64.50;;;;;;5029065;28;20078;-62
2020/12/15 06:21:37;;;;;;;13.63;2.85;;;16.00;64.30;;;;;;5016720;28;20081;-64
2020/12/15 06:24:05;;;;;;;12.93;3.53;;;15.90;64.70;;;;;;5014525;28;20025;-61
2020/12/15 06:26:32;;;;;;;11.98;3.15;;;15.90;64.10;;;;;;5037573;28;20067;-63
2020/12/15 06:29:00;;;;;;;16.52;3.13;;;16.00;64.10;;;;;;5035721;28;20676;-61
2020/12/15 06:31:26;;;;;;;18.80;3.17;;;16.00;64.10;;;;;;5049470;28;20037;-63
2020/12/15 06:33:59;;;;;;;41.83;6.00;;;16.00;64.60;;;;;;5042713;28;20503;-63
2020/12/15 06:36:30;;;;;;;55.30;5.85;;;16.00;64.00;;;;;;5031948;28;20128;-63
2020/12/15 06:38:57;;;;;;;46.55;10.63;;;16.00;64.00;;;;;;5028800;28;20490;-62
2020/12/15 06:41:24;;;;;;;39.88;5.97;;;16.00;63.60;;;;;;5028408;28;20426;-63
2020/12/15 06:43:50;;;;;;;37.53;7.03;;;16.10;63.60;;;;;;5022457;28;20025;-64
2020/12/15 06:46:25;;;;;;;52.80;11.70;;;16.10;63.70;;;;;;5021113;28;20029;-63
2020/12/15 06:48:53;;;;;;;49.60;11.45;;;16.10;63.70;;;;;;5046705;28;20037;-63
2020/12/15 06:54:41;;;;;;;31.65;8.27;;;16.20;63.50;;;;;;5064869;28;20158;-62
2020/12/15 06:57:09;;;;;;;34.80;7.45;;;16.20;63.20;;;;;;5048152;28;20025;-63
2020/12/15 06:59:37;;;;;;;28.33;7.80;;;16.30;63.40;;;;;;5066343;28;20024;-63
2020/12/15 07:02:10;;;;;;;34.10;7.35;;;16.30;64.20;;;;;;5066159;28;20033;-62
2020/12/15 07:04:47;;;;;;;23.13;7.07;;;16.20;63.70;;;;;;5047746;28;20083;-62
2020/12/15 07:07:16;;;;;;;27.92;7.05;;;16.20;63.70;;;;;;5028682;28;20037;-63
2020/12/15 07:09:43;;;;;;;21.30;6.07;;;16.20;63.80;;;;;;5025856;28;20122;-63
2020/12/15 07:12:16;;;;;;;27.20;7.10;;;16.20;63.80;;;;;;5008002;28;20026;-63
2020/12/15 07:14:49;;;;;;;21.27;6.60;;;16.20;63.50;;;;;;5036569;28;20033;-62
2020/12/15 07:17:15;;;;;;;20.15;6.18;;;16.30;63.50;;;;;;5028187;28;20025;-65
2020/12/15 07:19:41;;;;;;;20.40;6.25;;;16.20;63.60;;;;;;5038481;28;20063;-63
2020/12/15 07:22:06;;;;;;;21.45;6.38;;;16.20;63.80;;;;;;5045736;28;20279;-62
2020/12/15 07:24:32;;;;;;;15.80;5.40;;;16.20;63.80;;;;;;5044758;28;20024;-62
2020/12/15 07:27:02;;;;;;;22.00;5.95;;;16.20;63.60;;;;;;5045747;28;20063;-63
2020/12/15 07:29:28;;;;;;;18.58;6.03;;;16.20;63.90;;;;;;5045335;28;20043;-63
2020/12/15 07:31:54;;;;;;;21.10;6.43;;;16.20;63.70;;;;;;5043336;28;20056;-63
2020/12/15 07:34:20;;;;;;;19.92;5.35;;;16.20;63.50;;;;;;5027247;28;20017;-64
2020/12/15 07:36:47;;;;;;;17.05;5.35;;;16.20;63.20;;;;;;5045354;28;20112;-65
2020/12/15 07:39:13;;;;;;;17.63;5.72;;;16.20;63.10;;;;;;5045246;28;20047;-61
2020/12/15 07:41:39;;;;;;;13.25;5.45;;;16.20;63.40;;;;;;5045362;28;20032;-62
2020/12/15 07:44:12;;;;;;;16.80;5.38;;;16.20;63.90;;;;;;5026913;28;20409;-63
2020/12/15 07:46:44;;;;;;;13.20;4.63;;;16.20;64.00;;;;;;5025475;28;20138;-62
2020/12/15 07:49:10;;;;;;;20.08;5.45;;;16.20;64.00;;;;;;5024879;28;20160;-62
2020/12/15 07:51:39;;;;;;;14.00;4.60;;;16.20;63.70;;;;;;5024951;28;20100;-62
2020/12/15 07:54:05;;;;;;;10.35;4.20;;;16.20;63.70;;;;;;5007105;28;20028;-62
2020/12/15 07:56:31;;;;;;;11.05;4.53;;;16.10;63.80;;;;;;5007167;28;20107;-63
2020/12/15 07:58:58;;;;;;;10.57;4.38;;;16.20;64.00;;;;;;5007075;28;20425;-63
2020/12/15 08:01:29;;;;;;;12.93;4.30;;;16.10;64.60;;;;;;5007408;28;20087;-62
2020/12/15 08:04:09;;;;;;;12.18;4.40;;;16.10;64.00;;;;;;5024574;28;20430;-62
2020/12/15 08:06:37;;;;;;;12.55;4.25;;;16.20;63.70;;;;;;5007032;28;20525;-65
2020/12/15 08:09:07;;;;;;;14.35;4.15;;;16.20;64.10;;;;;;5024978;28;20332;-65
2020/12/15 08:11:34;;;;;;;13.80;4.03;;;16.20;63.60;;;;;;5006841;28;20033;-65
2020/12/15 08:14:01;;;;;;;13.75;5.10;;;16.20;63.50;;;;;;5024628;28;20108;-66
2020/12/15 08:16:27;;;;;;;13.50;4.50;;;16.20;63.10;;;;;;5006604;28;20026;-63
2020/12/15 08:19:03;;;;;;;9.52;3.78;;;16.20;63.00;;;;;;5006882;28;20025;-63
2020/12/15 08:21:58;;;;;;;9.23;3.80;;;16.20;62.90;;;;;;5024465;28;20036;-63
2020/12/15 08:24:29;;;;;;;12.40;3.78;;;16.20;63.00;;;;;;4998067;28;20140;-66
2020/12/15 08:26:54;;;;;;;14.02;3.85;;;16.20;63.20;;;;;;5006766;28;20040;-64
2020/12/15 08:29:23;;;;;;;10.02;3.63;;;16.20;63.20;;;;;;5010776;28;20037;-63
2020/12/15 08:31:50;;;;;;;10.30;3.58;;;16.20;63.10;;;;;;5024936;28;20024;-64
2020/12/15 08:34:19;;;;;;;10.30;3.95;;;16.20;63.30;;;;;;5040837;28;20048;-63
2020/12/15 08:36:48;;;;;;;7.90;3.50;;;16.20;63.10;;;;;;5044344;28;20033;-62
2020/12/15 08:39:17;;;;;;;9.02;3.70;;;16.20;63.00;;;;;;5044027;28;20108;-63
2020/12/15 08:41:54;;;;;;;9.65;3.53;;;16.20;62.90;;;;;;5044154;28;20092;-63
2020/12/15 08:44:21;;;;;;;8.05;3.25;;;16.20;62.60;;;;;;5044003;28;20087;-62
2020/12/15 08:46:49;;;;;;;9.93;3.67;;;16.20;62.50;;;;;;5043999;28;20032;-63
2020/12/15 08:49:15;;;;;;;8.43;3.38;;;16.20;62.60;;;;;;5036352;28;20037;-62
2020/12/15 08:51:45;;;;;;;7.57;3.20;;;16.20;62.90;;;;;;5024058;28;20422;-62
2020/12/15 08:54:12;;;;;;;9.57;3.58;;;16.20;62.70;;;;;;5023955;28;20510;-63
2020/12/15 08:56:38;;;;;;;6.68;3.05;;;16.20;62.50;;;;;;5024320;28;20022;-62
2020/12/15 08:59:17;;;;;;;6.97;2.97;;;16.20;62.70;;;;;;5006216;28;20032;-63
2020/12/15 09:01:44;;;;;;;7.43;3.00;;;16.20;62.90;;;;;;5024047;28;20026;-63
2020/12/15 09:04:10;;;;;;;5.90;2.70;;;16.20;63.60;;;;;;5023759;28;20423;-63
2020/12/15 09:06:37;;;;;;;8.85;3.78;;;16.20;63.20;;;;;;5024086;28;20075;-63
2020/12/15 09:09:05;;;;;;;9.00;3.30;;;16.20;63.80;;;;;;5024241;28;20038;-63
2020/12/15 09:11:30;;;;;;;6.75;2.78;;;16.20;63.40;;;;;;5006076;28;20030;-62
2020/12/15 09:14:01;;;;;;;9.30;3.30;;;16.20;63.10;;;;;;5023713;28;20032;-62
2020/12/15 09:16:32;;;;;;;8.85;2.90;;;16.20;62.80;;;;;;5029932;28;20065;-63
2020/12/15 09:19:08;;;;;;;7.80;2.80;;;16.20;63.60;;;;;;5044000;28;20028;-63
2020/12/15 09:21:34;;;;;;;6.53;3.22;;;16.20;63.60;;;;;;5044183;28;20067;-63
2020/12/15 09:23:59;;;;;;;5.88;2.88;;;16.20;64.20;;;;;;5043429;28;20033;-63
2020/12/15 09:26:24;;;;;;;8.18;3.10;;;16.20;63.70;;;;;;5043972;28;20045;-63
2020/12/15 09:28:50;;;;;;;7.57;2.97;;;16.20;63.20;;;;;;5042268;28;20571;-63
2020/12/15 09:31:17;;;;;;;6.25;2.80;;;16.20;62.80;;;;;;5042869;28;20122;-62
2020/12/15 09:33:43;;;;;;;5.78;3.00;;;16.20;63.30;;;;;;5043875;28;20219;-63
2020/12/15 09:36:14;;;;;;;5.20;2.70;;;16.20;63.40;;;;;;5025843;28;20750;-63
2020/12/15 09:38:41;;;;;;;6.45;3.10;;;16.20;63.80;;;;;;5025819;28;20021;-64
2020/12/15 09:41:07;;;;;;;5.63;2.50;;;16.20;63.50;;;;;;5043475;28;20037;-63
2020/12/15 09:43:32;;;;;;;5.22;2.40;;;16.20;63.20;;;;;;5045581;28;20044;-62
2020/12/15 09:45:58;;;;;;;5.78;2.40;;;16.20;64.10;;;;;;5047422;28;20037;-62
2020/12/15 09:48:23;;;;;;;6.28;3.05;;;16.20;64.40;;;;;;5047486;28;20033;-62
2020/12/15 09:50:52;;;;;;;5.65;2.90;;;16.30;65.00;;;;;;5027098;28;20039;-63
2020/12/15 09:53:17;;;;;;;6.10;2.92;;;16.20;65.10;;;;;;5027660;28;20029;-62
2020/12/15 09:55:43;;;;;;;5.85;2.72;;;16.20;65.20;;;;;;5027439;28;20048;-63
2020/12/15 09:58:08;;;;;;;6.13;2.60;;;16.20;64.90;;;;;;5009539;28;20072;-65
2020/12/15 10:00:34;;;;;;;5.13;2.53;;;16.10;65.10;;;;;;5027020;28;20074;-62
2020/12/15 10:02:59;;;;;;;6.53;2.90;;;16.10;65.70;;;;;;5027160;28;20030;-63
2020/12/15 10:05:26;;;;;;;4.88;2.70;;;16.10;65.90;;;;;;5027753;28;20406;-63
2020/12/15 10:07:51;;;;;;;6.22;2.92;;;16.10;65.90;;;;;;5027324;28;20021;-63
2020/12/15 10:10:17;;;;;;;6.05;2.42;;;16.10;66.10;;;;;;5027403;28;20040;-65
2020/12/15 10:12:43;;;;;;;5.43;2.55;;;16.10;66.00;;;;;;5027172;28;20022;-66
2020/12/15 10:15:10;;;;;;;5.20;2.75;;;16.10;64.80;;;;;;5009715;28;20466;-63
2020/12/15 10:17:36;;;;;;;8.63;3.13;;;16.10;64.50;;;;;;5027399;28;20028;-63
2020/12/15 10:20:03;;;;;;;5.82;2.90;;;16.10;64.60;;;;;;5009347;28;20061;-63
2020/12/15 10:22:29;;;;;;;7.32;2.63;;;16.10;64.60;;;;;;5009295;28;20030;-63
2020/12/15 10:24:54;;;;;;;6.22;2.63;;;16.10;65.10;;;;;;5027251;28;20045;-63
2020/12/15 10:27:20;;;;;;;5.55;2.53;;;16.10;65.00;;;;;;5027235;28;20037;-63
2020/12/15 10:29:45;;;;;;;5.97;2.50;;;16.10;64.90;;;;;;5026901;28;20402;-64
2020/12/15 10:32:11;;;;;;;6.28;2.78;;;16.10;65.10;;;;;;5028006;28;20048;-64
2020/12/15 10:34:36;;;;;;;6.32;2.88;;;16.10;66.20;;;;;;5046599;28;20429;-63
2020/12/15 10:37:02;;;;;;;5.40;2.80;;;16.10;66.30;;;;;;5046364;28;20029;-63
2020/12/15 10:39:27;;;;;;;5.55;2.78;;;16.10;66.40;;;;;;5046737;28;20025;-66
2020/12/15 10:41:53;;;;;;;5.10;2.72;;;16.10;66.80;;;;;;5046762;28;20037;-66
2020/12/15 10:44:19;;;;;;;4.43;2.40;;;16.10;67.40;;;;;;5028274;28;20029;-65
2020/12/15 10:46:45;;;;;;;4.97;2.45;;;16.10;67.30;;;;;;5028147;28;20024;-66
2020/12/15 10:49:12;;;;;;;6.80;2.90;;;16.00;66.90;;;;;;5028174;28;20041;-66
2020/12/15 10:51:38;;;;;;;5.20;2.42;;;16.00;67.30;;;;;;5044358;28;20098;-66
2020/12/15 10:54:07;;;;;;;4.32;2.38;;;16.00;67.90;;;;;;5045639;28;20474;-66
2020/12/15 10:56:33;;;;;;;6.30;2.65;;;16.00;67.70;;;;;;5028023;28;20124;-67
2020/12/15 10:58:59;;;;;;;5.35;2.95;;;16.00;67.70;;;;;;5031416;28;20104;-64
2020/12/15 11:01:26;;;;;;;4.60;2.65;;;16.00;68.10;;;;;;5008331;28;20458;-64
2020/12/15 11:03:52;;;;;;;4.63;2.38;;;16.00;68.50;;;;;;5025930;28;20026;-64
2020/12/15 11:06:17;;;;;;;5.25;2.42;;;15.90;68.10;;;;;;5008219;28;20035;-63
2020/12/15 11:08:43;;;;;;;5.80;2.47;;;15.90;68.40;;;;;;5008312;28;20218;-66
2020/12/15 11:11:12;;;;;;;5.63;2.75;;;15.90;68.20;;;;;;5010744;28;20620;-66
2020/12/15 11:13:38;;;;;;;5.25;2.50;;;15.90;68.60;;;;;;5027651;28;20048;-65
2020/12/15 11:16:03;;;;;;;4.03;2.20;;;15.90;68.40;;;;;;5046095;28;20021;-63
2020/12/15 11:18:29;;;;;;;5.47;2.60;;;15.90;68.30;;;;;;5037763;28;20087;-63
2020/12/15 11:20:54;;;;;;;5.43;2.50;;;15.90;68.00;;;;;;5008185;28;20402;-63
2020/12/15 11:23:20;;;;;;;3.65;2.00;;;15.90;67.70;;;;;;5025752;28;20025;-64
2020/12/15 11:25:47;;;;;;;4.63;2.30;;;15.90;67.70;;;;;;5026093;28;20045;-64
2020/12/15 11:28:13;;;;;;;6.82;2.55;;;15.90;67.60;;;;;;5025787;28;20029;-63
2020/12/15 11:30:39;;;;;;;4.80;2.40;;;15.90;67.30;;;;;;5007863;28;20029;-64
2020/12/15 11:33:04;;;;;;;4.32;2.17;;;15.90;67.10;;;;;;5007206;28;20057;-62
2020/12/15 11:35:32;;;;;;;4.70;2.17;;;15.90;66.90;;;;;;5025888;28;20025;-62
2020/12/15 11:37:59;;;;;;;3.95;2.03;;;15.90;66.70;;;;;;5025702;28;20021;-63
2020/12/15 11:40:26;;;;;;;4.05;2.13;;;15.90;66.50;;;;;;5025783;28;20032;-63
2020/12/15 11:42:53;;;;;;;3.90;2.03;;;15.90;66.30;;;;;;5007531;28;20124;-63
2020/12/15 11:45:19;;;;;;;4.68;2.33;;;15.90;65.50;;;;;;5025634;28;20028;-63
2020/12/15 11:47:44;;;;;;;3.85;2.03;;;15.90;66.20;;;;;;5038400;28;20635;-63
2020/12/15 11:50:10;;;;;;;4.35;2.35;;;15.90;67.10;;;;;;5027389;28;20024;-62
2020/12/15 11:52:36;;;;;;;5.18;2.55;;;15.90;67.10;;;;;;5043908;28;20029;-63
2020/12/15 11:55:02;;;;;;;4.18;1.90;;;15.90;66.60;;;;;;5027234;28;20116;-62
2020/12/15 11:57:27;;;;;;;4.47;2.22;;;15.90;66.40;;;;;;5045237;28;20108;-62
2020/12/15 11:59:53;;;;;;;4.05;2.10;;;15.90;66.30;;;;;;5027349;28;20440;-65
2020/12/15 12:02:19;;;;;;;4.95;2.35;;;15.90;66.50;;;;;;5044928;28;20516;-65
2020/12/15 12:04:44;;;;;;;4.15;2.08;;;15.90;66.90;;;;;;5045004;28;20029;-66
2020/12/15 12:07:10;;;;;;;4.68;2.20;;;15.90;67.00;;;;;;5020596;28;20580;-66
2020/12/15 12:09:36;;;;;;;4.40;2.20;;;15.90;67.10;;;;;;5025168;28;20529;-64
2020/12/15 12:12:03;;;;;;;3.58;2.00;;;15.90;66.80;;;;;;5007190;28;20483;-66
2020/12/15 12:14:28;;;;;;;3.70;1.85;;;15.90;67.10;;;;;;5024946;28;20068;-65
2020/12/15 12:16:54;;;;;;;3.45;1.80;;;15.90;66.80;;;;;;5007133;28;20049;-65
2020/12/15 12:19:20;;;;;;;3.33;1.90;;;15.90;66.10;;;;;;5007157;28;20083;-65
2020/12/15 12:21:45;;;;;;;3.42;1.63;;;15.90;65.00;;;;;;5025050;28;20610;-65
2020/12/15 12:24:11;;;;;;;3.20;1.92;;;15.90;64.40;;;;;;5024593;28;20033;-66
2020/12/15 12:26:37;;;;;;;3.58;1.90;;;15.90;64.50;;;;;;5024946;28;20056;-65
2020/12/15 12:29:03;;;;;;;3.30;1.65;;;15.90;65.30;;;;;;5025543;28;20561;-65
2020/12/15 12:31:28;;;;;;;4.03;1.90;;;16.00;66.00;;;;;;5044746;28;20082;-65
2020/12/15 12:33:54;;;;;;;3.75;1.90;;;15.90;64.70;;;;;;5044351;28;20025;-65
2020/12/15 12:36:19;;;;;;;2.90;1.55;;;15.90;65.60;;;;;;5044726;28;20438;-64
2020/12/15 12:38:45;;;;;;;3.05;1.80;;;15.90;64.50;;;;;;5044319;28;20039;-65
2020/12/15 12:41:17;;;;;;;4.38;2.00;;;15.90;64.90;;;;;;5044537;28;20544;-64
2020/12/15 12:43:45;;;;;;;3.47;1.58;;;15.90;64.70;;;;;;5044297;28;20099;-64
2020/12/15 12:46:15;;;;;;;3.42;1.65;;;15.90;64.30;;;;;;5044592;28;20066;-64